Pagina principale
METAR-TAF:

METAR-TAF

Aeroporti :

Aeroporto Internazionale di Baghdad

Baghdad, Iraq

latitudine: 33-15-45N, longitudine: 44-14-04E, altezza: 35 m

Osservazione

Il bollettino è stato emesso 12 minuti fa, alle 17:00 UTC
Vento 6 kt da nord/nord-ovest
Temperature 34°C
Umidità 22%
Pressione 1009 hPa
Visibilità 10 km o più
Poco nuvoloso ad un'altezza di 4000 ft

METAR: ORBI 051700Z 34006KT 9999 FEW040 34/09 Q1009 NOSIG

Ora: 20:12 (17:12 UTC)

Previsione

Il bollettino è stato emesso 7 ore e 12 minuti fa, alle 10:00 UTC
Previsione valida dal 05 alle 12 UTC al 06 alle 12 UTC
Vento 10 kt da nord/nord-ovest
Visibilità 10 km o più
nessuna nube inferiore a 1500 m e nessun cumulonembo

TAF: ORBI 051000Z 0512/0612 33010KT CAVOK

Osservazioni e previsioni meteorologiche di più di 4000 aeroporti (messaggi METAR e TAF).

Le stazioni disponibili sono rappresentate dai dischi gialli e rossi sulla carta.

Puntare il mouse per vedere il nome della stazione.

Clicca sopra per visualizzare le osservazioni e previsioni meteorologiche.

Per cambiare la mappa : fare clic sui pulsanti verdi con una croce nera per ingrandire, il pulsante verde con un trattino per diminuire, o sulla freccia verde per le mappe adiacenti.


METAR-TAF: